createdAt,value
2018-08-19T00:01:24.002Z,18.60
2018-08-19T00:04:34.622Z,18.60
2018-08-19T00:07:46.052Z,18.40
2018-08-19T00:11:04.481Z,18.40
2018-08-19T00:14:29.906Z,18.30
2018-08-19T00:17:40.314Z,18.30
2018-08-19T00:20:51.904Z,18.30
2018-08-19T00:24:02.244Z,18.40
2018-08-19T00:27:12.344Z,18.40
2018-08-19T00:30:22.450Z,18.20
2018-08-19T00:33:33.287Z,18.10
2018-08-19T00:36:43.931Z,18.10
2018-08-19T00:39:58.354Z,18.10
2018-08-19T00:43:09.295Z,18.20
2018-08-19T00:46:24.521Z,18.20
2018-08-19T00:49:34.718Z,18.20
2018-08-19T00:52:44.630Z,18.30
2018-08-19T00:55:54.479Z,18.20
2018-08-19T00:59:05.696Z,18.20
2018-08-19T01:02:16.096Z,18.10
2018-08-19T01:05:26.762Z,18.10
2018-08-19T01:08:36.816Z,18.10
2018-08-19T01:11:52.586Z,18.10
2018-08-19T01:15:02.663Z,18.00
2018-08-19T01:18:13.540Z,18.00
2018-08-19T01:21:24.759Z,17.90
2018-08-19T01:24:35.025Z,17.90
2018-08-19T01:27:45.930Z,17.90
2018-08-19T01:30:57.084Z,17.90
2018-08-19T01:34:09.917Z,17.90
2018-08-19T01:37:20.258Z,18.00
2018-08-19T01:40:30.852Z,18.00
2018-08-19T01:43:47.057Z,17.90
2018-08-19T01:46:57.498Z,18.00
2018-08-19T01:50:17.688Z,18.00
2018-08-19T01:53:27.842Z,17.90
2018-08-19T01:56:39.033Z,18.00
2018-08-19T01:59:49.422Z,18.00
2018-08-19T02:03:04.302Z,18.00
2018-08-19T02:06:15.155Z,18.00
2018-08-19T02:09:26.130Z,18.00
2018-08-19T02:12:38.273Z,17.90
2018-08-19T02:15:48.910Z,18.00
2018-08-19T02:18:59.668Z,18.00
2018-08-19T02:22:10.995Z,18.00
2018-08-19T02:25:21.420Z,17.90
2018-08-19T02:28:32.097Z,17.80
2018-08-19T02:31:43.059Z,17.70
2018-08-19T02:34:53.179Z,17.80
2018-08-19T02:38:04.128Z,17.80
2018-08-19T02:41:14.958Z,17.70
2018-08-19T02:44:25.890Z,17.70
2018-08-19T02:47:37.045Z,17.60
2018-08-19T02:50:47.242Z,17.70
2018-08-19T02:53:57.151Z,17.70
2018-08-19T02:57:07.094Z,17.70
2018-08-19T03:00:18.804Z,17.60
2018-08-19T03:03:29.535Z,17.70
2018-08-19T03:06:39.477Z,17.60
2018-08-19T03:09:53.997Z,17.60
2018-08-19T03:13:04.507Z,17.60
2018-08-19T03:16:14.811Z,17.40
2018-08-19T03:19:25.704Z,17.40
2018-08-19T03:22:36.546Z,17.50
2018-08-19T03:25:47.234Z,17.40
2018-08-19T03:28:57.182Z,17.40
2018-08-19T03:32:09.139Z,17.40
2018-08-19T03:35:20.695Z,17.30
2018-08-19T03:38:30.736Z,17.30
2018-08-19T03:41:40.534Z,17.40
2018-08-19T03:44:51.150Z,17.30
2018-08-19T03:48:01.860Z,17.30
2018-08-19T03:51:13.582Z,17.20
2018-08-19T03:54:24.436Z,17.20
2018-08-19T03:57:35.207Z,17.20
2018-08-19T04:00:46.103Z,17.00
2018-08-19T04:03:56.036Z,17.20
2018-08-19T04:07:06.095Z,17.20
2018-08-19T04:10:17.133Z,17.10
2018-08-19T04:13:31.167Z,17.10
2018-08-19T04:16:42.024Z,17.10
2018-08-19T04:19:52.654Z,17.20
2018-08-19T04:23:03.698Z,17.10
2018-08-19T04:26:14.090Z,17.00
2018-08-19T04:29:25.908Z,17.10
2018-08-19T04:32:36.862Z,17.00
2018-08-19T04:35:47.570Z,17.00
2018-08-19T04:38:58.404Z,16.90
2018-08-19T04:42:08.396Z,16.90
2018-08-19T04:45:19.051Z,17.00
2018-08-19T04:48:29.817Z,17.00
2018-08-19T04:51:40.919Z,17.00
2018-08-19T04:54:52.385Z,17.10
2018-08-19T04:58:03.206Z,17.10
2018-08-19T05:01:14.198Z,17.20
2018-08-19T05:04:25.075Z,17.30
2018-08-19T05:07:36.068Z,17.30
2018-08-19T05:10:46.913Z,17.40
2018-08-19T05:13:58.772Z,17.40
2018-08-19T05:17:09.399Z,17.50
2018-08-19T05:20:20.146Z,17.50
2018-08-19T05:23:30.765Z,17.60
2018-08-19T05:26:40.983Z,17.60
2018-08-19T05:29:50.936Z,17.60
2018-08-19T05:33:03.057Z,17.70
2018-08-19T05:36:13.598Z,17.70
2018-08-19T05:39:24.427Z,17.60
2018-08-19T05:42:35.235Z,17.70
2018-08-19T05:46:04.089Z,17.70
2018-08-19T05:49:14.088Z,17.80
2018-08-19T05:52:24.856Z,18.00
2018-08-19T05:55:34.943Z,18.10
2018-08-19T05:58:45.899Z,18.20
2018-08-19T06:01:56.989Z,18.10
2018-08-19T06:05:07.492Z,18.20
2018-08-19T06:08:18.326Z,18.20
2018-08-19T06:11:30.242Z,18.30
2018-08-19T06:14:40.474Z,18.30
2018-08-19T06:17:50.988Z,18.40
2018-08-19T06:21:01.305Z,18.40
2018-08-19T06:24:15.196Z,18.40
2018-08-19T06:27:30.274Z,18.50
2018-08-19T06:30:40.868Z,18.50
2018-08-19T06:33:51.267Z,18.70
2018-08-19T06:37:02.157Z,18.80
2018-08-19T06:40:13.502Z,18.90
2018-08-19T06:43:24.183Z,19.00
2018-08-19T06:46:35.200Z,19.20
2018-08-19T06:49:51.652Z,19.30
2018-08-19T06:53:02.389Z,19.30
2018-08-19T06:56:13.828Z,19.50
2018-08-19T06:59:24.146Z,19.60
2018-08-19T07:02:35.075Z,19.50
2018-08-19T07:06:00.453Z,19.60
2018-08-19T07:09:10.763Z,19.70
2018-08-19T07:12:23.268Z,19.80
2018-08-19T07:15:33.700Z,20.00
2018-08-19T07:18:44.783Z,20.10
2018-08-19T07:22:03.873Z,20.30
2018-08-19T07:25:15.101Z,20.50
2018-08-19T07:28:25.404Z,20.60
2018-08-19T07:31:36.300Z,20.70
2018-08-19T07:34:46.324Z,20.80
2018-08-19T07:37:57.336Z,20.90
2018-08-19T07:41:08.074Z,21.00
2018-08-19T07:44:19.254Z,21.00
2018-08-19T07:47:29.867Z,21.10
2018-08-19T07:50:40.603Z,21.30
2018-08-19T07:53:51.219Z,21.50
2018-08-19T07:57:15.179Z,21.40
2018-08-19T08:01:29.008Z,21.50
2018-08-19T08:04:41.838Z,21.60
2018-08-19T08:07:52.501Z,21.90
2018-08-19T08:11:03.267Z,22.00
2018-08-19T08:14:14.101Z,22.10
2018-08-19T08:17:25.521Z,22.20
2018-08-19T08:20:35.563Z,22.40
2018-08-19T08:23:46.526Z,22.50
2018-08-19T08:26:57.049Z,22.70
2018-08-19T08:30:10.531Z,22.80
2018-08-19T08:33:20.965Z,23.00
2018-08-19T08:36:31.567Z,23.10
2018-08-19T08:39:41.224Z,23.30
2018-08-19T08:42:51.336Z,23.40
2018-08-19T08:46:01.130Z,23.30
2018-08-19T08:49:11.296Z,23.50
2018-08-19T08:52:23.744Z,23.60
2018-08-19T08:55:33.755Z,23.70
2018-08-19T08:58:44.674Z,23.70
2018-08-19T09:01:55.777Z,23.70
2018-08-19T09:05:08.767Z,23.70
2018-08-19T09:08:18.985Z,23.90
2018-08-19T09:11:29.577Z,24.00
2018-08-19T09:14:40.124Z,24.20
2018-08-19T09:17:50.700Z,24.40
2018-08-19T09:21:00.989Z,24.50
2018-08-19T09:24:11.031Z,24.70
2018-08-19T09:27:21.439Z,24.90
2018-08-19T09:30:36.635Z,25.10
2018-08-19T09:33:47.016Z,25.10
2018-08-19T09:36:58.057Z,25.20
2018-08-19T09:40:07.767Z,25.40
2018-08-19T09:43:17.939Z,25.50
2018-08-19T09:46:27.697Z,25.60
2018-08-19T09:49:37.432Z,25.60
2018-08-19T09:52:47.947Z,25.70
2018-08-19T09:56:03.463Z,25.70
2018-08-19T09:59:14.709Z,25.80
2018-08-19T10:02:24.945Z,25.90
2018-08-19T10:05:36.293Z,26.00
2018-08-19T10:08:46.708Z,26.20
2018-08-19T10:11:57.415Z,26.40
2018-08-19T10:15:08.013Z,26.40
2018-08-19T10:18:18.335Z,26.80
2018-08-19T10:21:28.158Z,26.80
2018-08-19T10:24:37.885Z,26.80
2018-08-19T10:27:49.685Z,26.80
2018-08-19T10:30:59.728Z,26.80
2018-08-19T10:34:10.367Z,27.00
2018-08-19T10:37:20.688Z,27.00
2018-08-19T10:40:30.732Z,27.20
2018-08-19T10:43:40.590Z,27.40
2018-08-19T10:46:50.783Z,27.40
2018-08-19T10:50:07.002Z,27.40
2018-08-19T10:53:28.905Z,27.60
2018-08-19T10:56:39.172Z,27.60
2018-08-19T10:59:54.247Z,27.50
2018-08-19T11:03:10.919Z,27.60
2018-08-19T11:06:21.375Z,27.70
2018-08-19T11:09:37.431Z,27.70
2018-08-19T11:12:51.087Z,27.50
2018-08-19T11:16:02.015Z,27.60
2018-08-19T11:19:11.641Z,27.70
2018-08-19T11:22:22.862Z,27.80
2018-08-19T11:25:32.623Z,27.80
2018-08-19T11:28:53.505Z,27.90
2018-08-19T11:32:03.636Z,28.00
2018-08-19T11:35:14.234Z,28.20
2018-08-19T11:38:25.205Z,28.30
2018-08-19T11:41:35.576Z,28.30
2018-08-19T11:44:46.024Z,28.50
2018-08-19T11:48:00.324Z,28.50
2018-08-19T11:51:10.724Z,28.40
2018-08-19T11:54:21.744Z,28.50
2018-08-19T11:57:32.201Z,28.70
2018-08-19T12:01:00.760Z,28.60
2018-08-19T12:04:12.194Z,28.60
2018-08-19T12:07:22.069Z,28.70
2018-08-19T12:10:32.916Z,28.70
2018-08-19T12:13:44.518Z,28.70
2018-08-19T12:16:54.665Z,28.70
2018-08-19T12:20:05.494Z,28.70
2018-08-19T12:23:16.171Z,29.00
2018-08-19T12:26:26.728Z,29.40
2018-08-19T12:29:38.052Z,29.20
2018-08-19T12:32:48.025Z,29.40
2018-08-19T12:35:58.569Z,29.40
2018-08-19T12:39:10.275Z,29.50
2018-08-19T12:42:19.883Z,29.70
2018-08-19T12:45:30.160Z,29.90
2018-08-19T12:48:39.842Z,30.00
2018-08-19T12:51:49.822Z,30.20
2018-08-19T12:55:05.037Z,30.10
2018-08-19T12:58:15.535Z,30.00
2018-08-19T13:01:25.673Z,29.60
2018-08-19T13:04:36.135Z,29.40
2018-08-19T13:07:46.211Z,29.50
2018-08-19T13:10:58.057Z,29.60
2018-08-19T13:14:07.834Z,29.70
2018-08-19T13:17:17.703Z,29.50
2018-08-19T13:20:28.099Z,29.40
2018-08-19T13:23:37.769Z,29.40
2018-08-19T13:26:47.668Z,29.40
2018-08-19T13:29:58.076Z,29.30
2018-08-19T13:33:08.881Z,29.00
2018-08-19T13:36:18.783Z,29.10
2018-08-19T13:39:28.995Z,29.00
2018-08-19T13:42:39.968Z,29.00
2018-08-19T13:45:50.607Z,28.90
2018-08-19T13:49:01.183Z,28.90
2018-08-19T13:52:10.923Z,28.70
2018-08-19T13:55:21.408Z,28.80
2018-08-19T13:58:31.667Z,29.00
2018-08-19T14:01:42.222Z,29.10
2018-08-19T14:04:52.371Z,29.20
2018-08-19T14:08:02.626Z,29.10
2018-08-19T14:11:13.631Z,29.20
2018-08-19T14:14:23.469Z,29.40
2018-08-19T14:17:33.268Z,29.40
2018-08-19T14:20:43.303Z,29.70
2018-08-19T14:23:52.976Z,29.70
2018-08-19T14:27:03.180Z,29.60
2018-08-19T14:30:13.387Z,29.70
2018-08-19T14:33:23.304Z,29.80
2018-08-19T14:36:33.272Z,29.80
2018-08-19T14:39:43.241Z,29.60
2018-08-19T14:42:53.579Z,29.50
2018-08-19T14:46:03.612Z,29.40
2018-08-19T14:49:14.144Z,29.50
2018-08-19T14:52:24.303Z,29.40
2018-08-19T14:55:34.375Z,29.40
2018-08-19T14:58:45.613Z,29.30
2018-08-19T15:01:55.768Z,29.30
2018-08-19T15:05:05.704Z,29.30
2018-08-19T15:08:19.284Z,29.10
2018-08-19T15:11:29.987Z,29.00
2018-08-19T15:14:39.741Z,28.90
2018-08-19T15:17:54.946Z,28.90
2018-08-19T15:21:05.060Z,28.90
2018-08-19T15:24:15.174Z,28.80
2018-08-19T15:27:25.355Z,28.60
2018-08-19T15:30:39.161Z,28.60
2018-08-19T15:33:49.162Z,28.50
2018-08-19T15:36:58.830Z,28.50
2018-08-19T15:40:09.215Z,28.50
2018-08-19T15:43:18.980Z,28.50
2018-08-19T15:46:28.850Z,28.60
2018-08-19T15:49:40.134Z,28.70
2018-08-19T15:52:51.266Z,28.80
2018-08-19T15:56:01.942Z,28.90
2018-08-19T15:59:12.735Z,28.90
2018-08-19T16:02:22.491Z,29.00
2018-08-19T16:05:32.386Z,28.90
2018-08-19T16:08:42.581Z,28.90
2018-08-19T16:11:53.204Z,28.90
2018-08-19T16:15:04.605Z,28.90
2018-08-19T16:18:14.542Z,28.70
2018-08-19T16:21:25.492Z,28.60
2018-08-19T16:24:36.040Z,28.60
2018-08-19T16:27:46.521Z,28.40
2018-08-19T16:30:57.104Z,28.40
2018-08-19T16:34:06.751Z,28.30
2018-08-19T16:37:17.231Z,28.30
2018-08-19T16:40:27.640Z,28.20
2018-08-19T16:43:37.658Z,28.10
2018-08-19T16:46:48.611Z,28.00
2018-08-19T16:49:58.632Z,27.90
2018-08-19T16:53:08.914Z,27.80
2018-08-19T16:56:19.466Z,27.80
2018-08-19T16:59:29.966Z,27.70
2018-08-19T17:02:39.786Z,27.70
2018-08-19T17:05:49.754Z,27.70
2018-08-19T17:09:00.009Z,27.70
2018-08-19T17:12:10.179Z,27.70
2018-08-19T17:15:20.104Z,27.70
2018-08-19T17:18:30.303Z,27.70
2018-08-19T17:21:40.419Z,27.70
2018-08-19T17:24:50.541Z,27.70
2018-08-19T17:28:05.672Z,27.60
2018-08-19T17:31:16.489Z,27.60
2018-08-19T17:34:27.418Z,27.60
2018-08-19T17:37:37.610Z,27.50
2018-08-19T17:40:47.801Z,27.40
2018-08-19T17:44:01.718Z,27.30
2018-08-19T17:47:12.366Z,27.30
2018-08-19T17:50:25.467Z,27.20
2018-08-19T17:53:35.570Z,27.10
2018-08-19T17:56:46.020Z,27.10
2018-08-19T17:59:56.451Z,27.00
2018-08-19T18:03:06.985Z,27.00
2018-08-19T18:06:17.645Z,26.90
2018-08-19T18:09:27.583Z,26.80
2018-08-19T18:12:37.356Z,26.70
2018-08-19T18:15:48.039Z,26.50
2018-08-19T18:19:00.056Z,26.30
2018-08-19T18:22:10.236Z,26.10
2018-08-19T18:25:20.636Z,26.00
2018-08-19T18:28:32.261Z,25.80
2018-08-19T18:31:42.676Z,25.60
2018-08-19T18:34:52.436Z,25.50
2018-08-19T18:38:02.403Z,25.50
2018-08-19T18:41:18.629Z,25.30
2018-08-19T18:44:28.493Z,25.20
2018-08-19T18:47:48.939Z,25.00
2018-08-19T18:50:58.873Z,24.90
2018-08-19T18:54:19.705Z,24.80
2018-08-19T18:57:30.959Z,24.50
2018-08-19T19:00:46.384Z,24.60
2018-08-19T19:03:56.291Z,24.40
2018-08-19T19:07:06.655Z,24.20
2018-08-19T19:10:17.056Z,24.30
2018-08-19T19:13:27.761Z,24.20
2018-08-19T19:16:39.253Z,24.20
2018-08-19T19:19:50.795Z,24.00
2018-08-19T19:23:01.404Z,24.00
2018-08-19T19:26:11.684Z,23.90
2018-08-19T19:29:26.314Z,23.90
2018-08-19T19:32:36.968Z,23.80
2018-08-19T19:35:47.313Z,23.80
2018-08-19T19:38:58.702Z,23.70
2018-08-19T19:42:10.596Z,23.60
2018-08-19T19:45:21.075Z,23.50
2018-08-19T19:48:31.085Z,23.20
2018-08-19T19:51:41.053Z,23.20
2018-08-19T19:54:51.331Z,23.20
2018-08-19T19:58:01.035Z,23.10
2018-08-19T20:01:10.993Z,23.10
2018-08-19T20:04:21.238Z,22.90
2018-08-19T20:07:31.325Z,22.80
2018-08-19T20:10:41.634Z,22.80
2018-08-19T20:13:51.967Z,22.80
2018-08-19T20:17:02.465Z,22.70
2018-08-19T20:20:12.289Z,22.50
2018-08-19T20:23:25.047Z,22.50
2018-08-19T20:26:35.925Z,22.30
2018-08-19T20:29:49.206Z,22.30
2018-08-19T20:32:59.837Z,22.40
2018-08-19T20:36:10.705Z,22.40
2018-08-19T20:39:21.564Z,22.50
2018-08-19T20:42:31.577Z,22.40
2018-08-19T20:45:41.900Z,22.30
2018-08-19T20:48:51.887Z,22.20
2018-08-19T20:52:01.835Z,22.10
2018-08-19T20:55:13.330Z,22.20
2018-08-19T20:58:23.212Z,22.20
2018-08-19T21:01:33.475Z,22.10
2018-08-19T21:04:43.600Z,22.10
2018-08-19T21:08:08.100Z,22.00
2018-08-19T21:11:18.448Z,21.90
2018-08-19T21:14:28.798Z,21.80
2018-08-19T21:17:38.967Z,21.80
2018-08-19T21:20:50.155Z,21.80
2018-08-19T21:24:00.069Z,21.80
2018-08-19T21:27:10.595Z,21.70
2018-08-19T21:30:21.427Z,21.70
2018-08-19T21:33:32.348Z,21.70
2018-08-19T21:36:42.989Z,21.70
2018-08-19T21:39:53.913Z,21.80
2018-08-19T21:43:04.183Z,21.80
2018-08-19T21:46:14.414Z,21.70
2018-08-19T21:49:24.882Z,21.60
2018-08-19T21:52:35.003Z,21.50
2018-08-19T21:55:49.271Z,21.40
2018-08-19T21:58:59.433Z,21.30
2018-08-19T22:02:13.587Z,21.40
2018-08-19T22:05:23.810Z,21.30
2018-08-19T22:08:34.544Z,21.20
2018-08-19T22:11:45.314Z,21.20
2018-08-19T22:14:55.352Z,21.00
2018-08-19T22:18:06.354Z,21.00
2018-08-19T22:21:19.892Z,20.90
2018-08-19T22:24:30.144Z,20.90
2018-08-19T22:27:40.340Z,20.70
2018-08-19T22:30:50.393Z,20.80
2018-08-19T22:34:01.209Z,20.70
2018-08-19T22:37:11.790Z,20.60
2018-08-19T22:40:28.329Z,20.50
2018-08-19T22:43:38.379Z,20.30
2018-08-19T22:46:48.340Z,19.90
2018-08-19T22:49:59.703Z,19.90
2018-08-19T22:53:10.085Z,19.80
2018-08-19T22:56:20.333Z,19.70
2018-08-19T22:59:31.154Z,19.60
2018-08-19T23:02:41.341Z,19.50
2018-08-19T23:05:52.052Z,19.60
2018-08-19T23:09:02.657Z,19.40
2018-08-19T23:12:12.544Z,19.40
2018-08-19T23:15:33.910Z,19.30
2018-08-19T23:18:44.624Z,19.30
2018-08-19T23:21:54.717Z,19.30
2018-08-19T23:25:05.144Z,19.40
2018-08-19T23:28:22.623Z,19.20
2018-08-19T23:31:33.296Z,19.00
2018-08-19T23:34:43.965Z,18.90
2018-08-19T23:37:54.742Z,19.00
2018-08-19T23:41:04.817Z,19.00
2018-08-19T23:44:15.290Z,19.10
2018-08-19T23:47:25.516Z,18.90
2018-08-19T23:50:36.237Z,18.80
2018-08-19T23:53:47.020Z,18.60
2018-08-19T23:56:57.163Z,18.70
